Terminal Aerodrome Forecast
Issued by NWS

Home | Current Version | Previous Version | Text Only | Print | Product List | Glossary On
Versions: 1 2 3 4 5 6 7 8 9 10 11 12 13 14 15 16 17 18 19 20 21 22
000
FTAK31 PAJN 281700
TAFAPG
TAF
PAPG 281720Z 2818/2918 12012KT P6SM SCT040 BKN100 WS020/14025KT
     FM282100 13012G22KT 6SM -RA SCT020 OVC040 WS020/14030KT
     FM290200 14010G18KT 5SM -SHRA BR BKN015 OVC025
     FM291000 14006G14KT P6SM -SHRA SCT015 OVC025
      AMD LTD TO CLD VIS AND WIND 2906/2915=

USA.gov is the U.S. government's official web portal to all federal, state and local government web resources and services.